Time;durP1;ratioP1;P1;durP2;ratioP2;P2;SDS_P1;SDS_P2;PMS_P1;PMS_P2;Temp;Humidity;BMP_temperature;BMP_pressure;BME280_temperature;BME280_humidity;BME280_pressure;Samples;Min_cycle;Max_cycle;Signal;HPM_P1;HPM_P2
2023/01/02 00:00:01;;;;;;;;;;;;;;;;;;7367342;19;1348;-68
2023/01/02 00:02:29;;;;;;;;;;;;;;;;;;7370184;19;966;-69
2023/01/02 00:04:57;;;;;;;;;;;;;;;;;;7369684;19;817;-69
2023/01/02 00:07:25;;;;;;;;;;;;;;;;;;7368732;19;803;-68
2023/01/02 00:09:53;;;;;;;;;;;;;;;;;;7366565;19;1830;-69
2023/01/02 00:12:21;;;;;;;;;;;;;;;;;;7373331;19;1836;-69
2023/01/02 00:14:50;;;;;;;;;;;;;;;;;;7370134;19;806;-69
2023/01/02 00:17:18;;;;;;;;;;;;;;;;;;7370033;19;803;-69
2023/01/02 00:19:46;;;;;;;;;;;;;;;;;;7366241;19;827;-69
2023/01/02 00:22:14;;;;;;;;;;;;;;;;;;7365293;19;1369;-70
2023/01/02 00:24:42;;;;;;;;;;;;;;;;;;7369196;19;799;-69
2023/01/02 00:27:10;;;;;;;;;;;;;;;;;;7369159;19;879;-69
2023/01/02 00:29:38;;;;;;;;;;;;;;;;;;7367359;19;1847;-69
2023/01/02 00:32:07;;;;;;;;;;;;;;;;;;7366064;19;1282;-69
2023/01/02 00:34:35;;;;;;;;;;;;;;;;;;7368987;19;854;-69
2023/01/02 00:37:03;;;;;;;;;;;;;;;;;;7369352;19;875;-69
2023/01/02 00:39:31;;;;;;;;;;;;;;;;;;7371944;19;1823;-68
2023/01/02 00:41:59;;;;;;;;;;;;;;;;;;7365918;19;1242;-68
2023/01/02 00:44:27;;;;;;;;;;;;;;;;;;7368066;19;1003;-67
2023/01/02 00:46:55;;;;;;;;;;;;;;;;;;7372035;19;1757;-68
2023/01/02 00:49:24;;;;;;;;;;;;;;;;;;7368832;19;1938;-68
2023/01/02 00:51:52;;;;;;;;;;;;;;;;;;7365753;19;1322;-68
2023/01/02 00:54:20;;;;;;;;;;;;;;;;;;7368909;19;801;-68
2023/01/02 00:56:48;;;;;;;;;;;;;;;;;;7366972;19;845;-69
2023/01/02 00:59:16;;;;;;;;;;;;;;;;;;7367216;19;836;-69
2023/01/02 01:01:44;;;;;;;;;;;;;;;;;;7363372;19;1278;-68
2023/01/02 01:04:13;;;;;;;;;;;;;;;;;;7368136;19;871;-69
2023/01/02 01:06:42;;;;;;;;;;;;;;;;;;7369015;19;800;-69
2023/01/02 01:09:10;;;;;;;;;;;;;;;;;;7370291;19;1863;-68
2023/01/02 01:11:38;;;;;;;;;;;;;;;;;;7365482;19;1286;-67
2023/01/02 01:14:06;;;;;;;;;;;;;;;;;;7366852;19;794;-67
2023/01/02 01:16:34;;;;;;;;;;;;;;;;;;7367685;19;890;-67
2023/01/02 01:19:02;;;;;;;;;;;;;;;;;;7366824;19;916;-68
2023/01/02 01:21:30;;;;;;;;;;;;;;;;;;7365574;19;1302;-67
2023/01/02 01:23:59;;;;;;;;;;;;;;;;;;7367754;19;803;-67
2023/01/02 01:26:27;;;;;;;;;;;;;;;;;;7366949;19;880;-67
2023/01/02 01:28:55;;;;;;;;;;;;;;;;;;7366872;19;896;-67
2023/01/02 01:31:23;;;;;;;;;;;;;;;;;;7364214;19;1838;-67
2023/01/02 01:33:51;;;;;;;;;;;;;;;;;;7367476;19;863;-68
2023/01/02 01:36:19;;;;;;;;;;;;;;;;;;7367294;19;816;-68
2023/01/02 01:38:47;;;;;;;;;;;;;;;;;;7368061;19;2140;-69
2023/01/02 01:41:15;;;;;;;;;;;;;;;;;;7364534;19;1303;-67
2023/01/02 01:43:44;;;;;;;;;;;;;;;;;;7365347;19;854;-67
2023/01/02 01:46:12;;;;;;;;;;;;;;;;;;7367211;19;859;-68
2023/01/02 01:48:40;;;;;;;;;;;;;;;;;;7365958;19;691;-68
2023/01/02 01:51:08;;;;;;;;;;;;;;;;;;7364846;19;1811;-67
2023/01/02 01:53:36;;;;;;;;;;;;;;;;;;7365737;19;773;-67
2023/01/02 01:56:04;;;;;;;;;;;;;;;;;;7367273;19;811;-68
2023/01/02 01:58:32;;;;;;;;;;;;;;;;;;7364784;19;839;-67
2023/01/02 02:01:01;;;;;;;;;;;;;;;;;;7365805;19;1909;-67
2023/01/02 02:03:29;;;;;;;;;;;;;;;;;;7365200;19;767;-66
2023/01/02 02:05:57;;;;;;;;;;;;;;;;;;7365685;19;875;-66
2023/01/02 02:08:25;;;;;;;;;;;;;;;;;;7365173;19;1966;-65
2023/01/02 02:10:53;;;;;;;;;;;;;;;;;;7366365;19;2010;-65
2023/01/02 02:13:21;;;;;;;;;;;;;;;;;;7370755;19;786;-65
2023/01/02 02:15:54;;;;;;;;;;;;;;;;;;7371517;19;769;-64
2023/01/02 02:18:22;;;;;;;;;;;;;;;;;;7373482;19;1832;-64
2023/01/02 02:20:50;;;;;;;;;;;;;;;;;;7370156;19;1268;-66
2023/01/02 02:23:19;;;;;;;;;;;;;;;;;;7371397;19;837;-66
2023/01/02 02:25:47;;;;;;;;;;;;;;;;;;7373518;19;1683;-68
2023/01/02 02:28:15;;;;;;;;;;;;;;;;;;7375273;19;1800;-66
2023/01/02 02:30:43;;;;;;;;;;;;;;;;;;7372516;19;1859;-66
2023/01/02 02:33:13;;;;;;;;;;;;;;;;;;7371836;19;1886;-66
2023/01/02 02:35:42;;;;;;;;;;;;;;;;;;7371368;19;938;-67
2023/01/02 02:38:10;;;;;;;;;;;;;;;;;;7369380;19;847;-66
2023/01/02 02:40:39;;;;;;;;;;;;;;;;;;7370357;19;1216;-66
2023/01/02 02:43:07;;;;;;;;;;;;;;;;;;7371586;19;849;-67
2023/01/02 02:45:35;;;;;;;;;;;;;;;;;;7371265;19;865;-67
2023/01/02 02:48:03;;;;;;;;;;;;;;;;;;7369283;19;826;-67
2023/01/02 02:50:31;;;;;;;;;;;;;;;;;;7370800;19;1845;-67
2023/01/02 02:52:59;;;;;;;;;;;;;;;;;;7370883;19;848;-68
2023/01/02 02:55:27;;;;;;;;;;;;;;;;;;7371280;19;871;-67
2023/01/02 02:57:56;;;;;;;;;;;;;;;;;;7369639;19;807;-66
2023/01/02 03:00:24;;;;;;;;;;;;;;;;;;7371467;19;1865;-66
2023/01/02 03:02:52;;;;;;;;;;;;;;;;;;7370339;19;892;-67
2023/01/02 03:05:20;;;;;;;;;;;;;;;;;;7371755;19;734;-67
2023/01/02 03:07:48;;;;;;;;;;;;;;;;;;7369627;19;762;-66
2023/01/02 03:10:16;;;;;;;;;;;;;;;;;;7370647;19;1849;-67
2023/01/02 03:12:45;;;;;;;;;;;;;;;;;;7371425;19;1041;-67
2023/01/02 03:15:13;;;;;;;;;;;;;;;;;;7371150;19;815;-67
2023/01/02 03:17:41;;;;;;;;;;;;;;;;;;7368537;19;740;-67
2023/01/02 03:20:09;;;;;;;;;;;;;;;;;;7369926;19;1365;-67
2023/01/02 03:22:37;;;;;;;;;;;;;;;;;;7370091;19;851;-67
2023/01/02 03:25:05;;;;;;;;;;;;;;;;;;7368126;19;807;-67
2023/01/02 03:27:33;;;;;;;;;;;;;;;;;;7370546;19;857;-68
2023/01/02 03:30:02;;;;;;;;;;;;;;;;;;7369337;19;1850;-67
2023/01/02 03:32:30;;;;;;;;;;;;;;;;;;7374679;19;1969;-67
2023/01/02 03:34:58;;;;;;;;;;;;;;;;;;7369790;19;1173;-67
2023/01/02 03:37:26;;;;;;;;;;;;;;;;;;7369710;19;802;-66
2023/01/02 03:39:54;;;;;;;;;;;;;;;;;;7369429;19;1325;-67
2023/01/02 03:42:22;;;;;;;;;;;;;;;;;;7370343;19;807;-67
2023/01/02 03:44:50;;;;;;;;;;;;;;;;;;7369641;19;1886;-67
2023/01/02 03:47:19;;;;;;;;;;;;;;;;;;7369585;19;808;-68
2023/01/02 03:49:47;;;;;;;;;;;;;;;;;;7369001;19;808;-68
2023/01/02 03:52:15;;;;;;;;;;;;;;;;;;7369717;19;2117;-68
2023/01/02 03:54:43;;;;;;;;;;;;;;;;;;7370100;19;837;-68
2023/01/02 03:57:11;;;;;;;;;;;;;;;;;;7369366;19;798;-68
2023/01/02 03:59:39;;;;;;;;;;;;;;;;;;7368628;19;1877;-68
2023/01/02 04:02:07;;;;;;;;;;;;;;;;;;7371464;19;1903;-68
2023/01/02 04:04:35;;;;;;;;;;;;;;;;;;7370015;19;814;-69
2023/01/02 04:07:04;;;;;;;;;;;;;;;;;;7370678;19;829;-69
2023/01/02 04:09:32;;;;;;;;;;;;;;;;;;7369737;19;799;-68
2023/01/02 04:12:00;;;;;;;;;;;;;;;;;;7367139;19;1852;-68
2023/01/02 04:14:28;;;;;;;;;;;;;;;;;;7369374;19;729;-68
2023/01/02 04:16:56;;;;;;;;;;;;;;;;;;7369500;19;725;-67
2023/01/02 04:19:24;;;;;;;;;;;;;;;;;;7368231;19;776;-68
2023/01/02 04:21:52;;;;;;;;;;;;;;;;;;7366793;19;1283;-67
2023/01/02 04:24:21;;;;;;;;;;;;;;;;;;7369680;19;847;-68
2023/01/02 04:26:49;;;;;;;;;;;;;;;;;;7368509;19;830;-68
2023/01/02 04:29:17;;;;;;;;;;;;;;;;;;7367585;19;818;-68
2023/01/02 04:31:45;;;;;;;;;;;;;;;;;;7369115;19;1853;-68
2023/01/02 04:34:14;;;;;;;;;;;;;;;;;;7368064;19;823;-67
2023/01/02 04:36:42;;;;;;;;;;;;;;;;;;7368228;19;799;-67
2023/01/02 04:39:10;;;;;;;;;;;;;;;;;;7366071;19;816;-66
2023/01/02 04:41:38;;;;;;;;;;;;;;;;;;7368317;19;1901;-66
2023/01/02 04:44:06;;;;;;;;;;;;;;;;;;7368441;19;875;-67
2023/01/02 04:46:34;;;;;;;;;;;;;;;;;;7368289;19;872;-66
2023/01/02 04:49:03;;;;;;;;;;;;;;;;;;7367627;19;881;-67
2023/01/02 04:51:31;;;;;;;;;;;;;;;;;;7365854;19;1850;-70
2023/01/02 04:53:59;;;;;;;;;;;;;;;;;;7367988;19;778;-67
2023/01/02 04:56:27;;;;;;;;;;;;;;;;;;7368363;19;720;-67
2023/01/02 04:58:55;;;;;;;;;;;;;;;;;;7367275;19;814;-66
2023/01/02 05:01:23;;;;;;;;;;;;;;;;;;7368670;19;1883;-67
2023/01/02 05:03:52;;;;;;;;;;;;;;;;;;7368329;19;822;-68
2023/01/02 05:06:20;;;;;;;;;;;;;;;;;;7368497;19;874;-67
2023/01/02 05:08:49;;;;;;;;;;;;;;;;;;7367507;19;779;-66
2023/01/02 05:11:17;;;;;;;;;;;;;;;;;;7365974;19;1849;-65
2023/01/02 05:13:45;;;;;;;;;;;;;;;;;;7368110;19;837;-65
2023/01/02 05:16:13;;;;;;;;;;;;;;;;;;7366786;19;874;-67
2023/01/02 05:18:41;;;;;;;;;;;;;;;;;;7367446;19;843;-67
2023/01/02 05:23:47;;;;;;;;;;;;;;;;;;7367119;19;1337;-67
2023/01/02 05:23:55;;;;;;;;;;;;;;;;;;7372154;19;1915;-67
2023/01/02 05:26:23;;;;;;;;;;;;;;;;;;7378050;19;755;-69
2023/01/02 05:28:51;;;;;;;;;;;;;;;;;;7379497;19;818;-66
2023/01/02 05:31:20;;;;;;;;;;;;;;;;;;7379672;19;1878;-66
2023/01/02 05:33:48;;;;;;;;;;;;;;;;;;7376865;19;823;-67
2023/01/02 05:36:16;;;;;;;;;;;;;;;;;;7373179;19;846;-67
2023/01/02 05:38:44;;;;;;;;;;;;;;;;;;7380075;19;969;-67
2023/01/02 05:41:13;;;;;;;;;;;;;;;;;;7377774;19;1361;-67
2023/01/02 05:43:42;;;;;;;;;;;;;;;;;;7380842;19;812;-66
2023/01/02 05:46:10;;;;;;;;;;;;;;;;;;7382904;19;1829;-67
2023/01/02 05:48:38;;;;;;;;;;;;;;;;;;7375161;19;855;-66
2023/01/02 05:51:06;;;;;;;;;;;;;;;;;;7372590;19;1871;-67
2023/01/02 05:53:34;;;;;;;;;;;;;;;;;;7372420;19;2110;-67
2023/01/02 05:56:02;;;;;;;;;;;;;;;;;;7367954;19;859;-67
2023/01/02 05:58:30;;;;;;;;;;;;;;;;;;7366930;19;814;-69
2023/01/02 06:00:59;;;;;;;;;;;;;;;;;;7365150;19;1306;-68
2023/01/02 06:03:27;;;;;;;;;;;;;;;;;;7366469;19;837;-67
2023/01/02 06:05:55;;;;;;;;;;;;;;;;;;7366640;19;892;-67
2023/01/02 06:08:23;;;;;;;;;;;;;;;;;;7365356;19;809;-67
2023/01/02 06:10:51;;;;;;;;;;;;;;;;;;7364131;19;1878;-67
2023/01/02 06:13:19;;;;;;;;;;;;;;;;;;7364516;19;818;-67
2023/01/02 06:15:47;;;;;;;;;;;;;;;;;;7366399;19;766;-67
2023/01/02 06:18:16;;;;;;;;;;;;;;;;;;7364671;19;790;-67
2023/01/02 06:20:44;;;;;;;;;;;;;;;;;;7364232;19;1294;-68
2023/01/02 06:23:12;;;;;;;;;;;;;;;;;;7365203;19;1842;-67
2023/01/02 06:25:40;;;;;;;;;;;;;;;;;;7365329;19;803;-67
2023/01/02 06:28:09;;;;;;;;;;;;;;;;;;7364114;19;818;-67
2023/01/02 06:30:37;;;;;;;;;;;;;;;;;;7363749;19;1266;-67
2023/01/02 06:33:05;;;;;;;;;;;;;;;;;;7362691;19;1896;-68
2023/01/02 06:35:33;;;;;;;;;;;;;;;;;;7364743;19;851;-67
2023/01/02 06:38:01;;;;;;;;;;;;;;;;;;7362853;19;857;-65
2023/01/02 06:40:29;;;;;;;;;;;;;;;;;;7363551;19;1267;-64
2023/01/02 06:42:57;;;;;;;;;;;;;;;;;;7363954;19;870;-65
2023/01/02 06:45:26;;;;;;;;;;;;;;;;;;7363661;19;822;-65
2023/01/02 06:47:54;;;;;;;;;;;;;;;;;;7363902;19;783;-66
2023/01/02 06:50:22;;;;;;;;;;;;;;;;;;7363236;19;1266;-66
2023/01/02 06:52:50;;;;;;;;;;;;;;;;;;7361923;19;1845;-67
2023/01/02 06:55:18;;;;;;;;;;;;;;;;;;7367359;19;1936;-65
2023/01/02 06:57:46;;;;;;;;;;;;;;;;;;7363773;19;885;-66
2023/01/02 07:00:14;;;;;;;;;;;;;;;;;;7370182;19;1357;-66
2023/01/02 07:02:43;;;;;;;;;;;;;;;;;;7372169;19;1905;-67
2023/01/02 07:05:12;;;;;;;;;;;;;;;;;;7371080;19;793;-66
2023/01/02 07:07:40;;;;;;;;;;;;;;;;;;7368972;19;871;-65
2023/01/02 07:10:08;;;;;;;;;;;;;;;;;;7370439;19;1350;-66
2023/01/02 07:12:36;;;;;;;;;;;;;;;;;;7368352;19;1855;-65
2023/01/02 07:15:05;;;;;;;;;;;;;;;;;;7370404;19;767;-67
2023/01/02 07:17:33;;;;;;;;;;;;;;;;;;7370857;19;865;-66
2023/01/02 07:20:01;;;;;;;;;;;;;;;;;;7368933;19;1256;-66
2023/01/02 07:22:29;;;;;;;;;;;;;;;;;;7370802;19;869;-67
2023/01/02 07:24:57;;;;;;;;;;;;;;;;;;7372324;19;1854;-66
2023/01/02 07:27:25;;;;;;;;;;;;;;;;;;7370828;19;821;-67
2023/01/02 07:29:53;;;;;;;;;;;;;;;;;;7369798;19;1223;-66
2023/01/02 07:32:22;;;;;;;;;;;;;;;;;;7368807;19;1873;-66
2023/01/02 07:34:50;;;;;;;;;;;;;;;;;;7369538;19;780;-67
2023/01/02 07:37:18;;;;;;;;;;;;;;;;;;7372293;19;916;-68
2023/01/02 07:39:46;;;;;;;;;;;;;;;;;;7368498;19;824;-67
2023/01/02 07:42:14;;;;;;;;;;;;;;;;;;7368798;19;1254;-67
2023/01/02 07:44:43;;;;;;;;;;;;;;;;;;7370545;19;795;-67
2023/01/02 07:47:11;;;;;;;;;;;;;;;;;;7370679;19;794;-65
2023/01/02 07:49:39;;;;;;;;;;;;;;;;;;7369219;19;842;-66
2023/01/02 07:52:07;;;;;;;;;;;;;;;;;;7367456;19;1826;-67
2023/01/02 07:54:35;;;;;;;;;;;;;;;;;;7373075;19;2260;-67
2023/01/02 07:57:04;;;;;;;;;;;;;;;;;;7369354;19;820;-67
2023/01/02 07:59:32;;;;;;;;;;;;;;;;;;7369254;19;826;-67
2023/01/02 08:02:00;;;;;;;;;;;;;;;;;;7367553;19;1263;-66
2023/01/02 08:04:28;;;;;;;;;;;;;;;;;;7369586;19;779;-67
2023/01/02 08:06:56;;;;;;;;;;;;;;;;;;7370150;19;839;-66
2023/01/02 08:09:24;;;;;;;;;;;;;;;;;;7367944;19;850;-67
2023/01/02 08:11:52;;;;;;;;;;;;;;;;;;7371008;19;1860;-68
2023/01/02 08:14:21;;;;;;;;;;;;;;;;;;7369980;19;929;-66
2023/01/02 08:16:49;;;;;;;;;;;;;;;;;;7370182;19;792;-67
2023/01/02 08:19:17;;;;;;;;;;;;;;;;;;7369265;19;852;-68
2023/01/02 08:21:45;;;;;;;;;;;;;;;;;;7368814;19;1346;-67
2023/01/02 08:24:13;;;;;;;;;;;;;;;;;;7372304;19;1725;-67
2023/01/02 08:26:41;;;;;;;;;;;;;;;;;;7369138;19;805;-68
2023/01/02 08:29:10;;;;;;;;;;;;;;;;;;7369129;19;775;-68
2023/01/02 08:31:38;;;;;;;;;;;;;;;;;;7365926;19;1852;-68
2023/01/02 08:34:06;;;;;;;;;;;;;;;;;;7372404;19;1819;-66
2023/01/02 08:36:35;;;;;;;;;;;;;;;;;;7368248;19;843;-67
2023/01/02 08:39:03;;;;;;;;;;;;;;;;;;7368230;19;866;-67
2023/01/02 08:41:31;;;;;;;;;;;;;;;;;;7367280;19;1306;-66
2023/01/02 08:43:59;;;;;;;;;;;;;;;;;;7368383;19;830;-68
2023/01/02 08:46:27;;;;;;;;;;;;;;;;;;7369308;19;846;-66
2023/01/02 08:48:55;;;;;;;;;;;;;;;;;;7368902;19;869;-65
2023/01/02 08:51:23;;;;;;;;;;;;;;;;;;7370824;19;1850;-66
2023/01/02 08:53:52;;;;;;;;;;;;;;;;;;7368820;19;1853;-66
2023/01/02 08:56:20;;;;;;;;;;;;;;;;;;7370237;19;1830;-64
2023/01/02 08:58:48;;;;;;;;;;;;;;;;;;7366503;19;875;-65
2023/01/02 09:01:16;;;;;;;;;;;;;;;;;;7366939;19;1333;-67
2023/01/02 09:03:45;;;;;;;;;;;;;;;;;;7369259;19;776;-67
2023/01/02 09:06:13;;;;;;;;;;;;;;;;;;7368449;19;772;-67
2023/01/02 09:08:41;;;;;;;;;;;;;;;;;;7367534;19;865;-65
2023/01/02 09:11:09;;;;;;;;;;;;;;;;;;7365966;19;1274;-64
2023/01/02 09:13:37;;;;;;;;;;;;;;;;;;7366144;19;1865;-64
2023/01/02 09:16:06;;;;;;;;;;;;;;;;;;7370437;19;1982;-65
2023/01/02 09:18:34;;;;;;;;;;;;;;;;;;7366308;19;809;-65
2023/01/02 09:21:02;;;;;;;;;;;;;;;;;;7363350;19;1251;-65
2023/01/02 09:23:30;;;;;;;;;;;;;;;;;;7364751;19;1928;-66
2023/01/02 09:25:58;;;;;;;;;;;;;;;;;;7365784;19;846;-66
2023/01/02 09:28:26;;;;;;;;;;;;;;;;;;7365855;19;771;-66
2023/01/02 09:30:55;;;;;;;;;;;;;;;;;;7365664;19;1282;-67
2023/01/02 09:33:23;;;;;;;;;;;;;;;;;;7367811;19;1843;-66
2023/01/02 09:35:51;;;;;;;;;;;;;;;;;;7366644;19;873;-66
2023/01/02 09:38:19;;;;;;;;;;;;;;;;;;7366492;19;831;-66
2023/01/02 09:40:47;;;;;;;;;;;;;;;;;;7367971;19;1274;-66
2023/01/02 09:43:18;;;;;;;;;;;;;;;;;;7368582;19;1922;-66
2023/01/02 09:45:46;;;;;;;;;;;;;;;;;;7373910;19;1726;-65
2023/01/02 09:48:14;;;;;;;;;;;;;;;;;;7378123;19;1847;-66
2023/01/02 09:50:42;;;;;;;;;;;;;;;;;;7371654;19;1333;-67
2023/01/02 09:53:10;;;;;;;;;;;;;;;;;;7371650;19;1838;-67
2023/01/02 09:55:38;;;;;;;;;;;;;;;;;;7367248;19;791;-66
2023/01/02 09:58:09;;;;;;;;;;;;;;;;;;7365554;19;802;-65
2023/01/02 10:00:37;;;;;;;;;;;;;;;;;;7365676;19;1294;-68
2023/01/02 10:03:05;;;;;;;;;;;;;;;;;;7366443;19;815;-65
2023/01/02 10:05:33;;;;;;;;;;;;;;;;;;7367255;19;815;-66
2023/01/02 10:08:02;;;;;;;;;;;;;;;;;;7367049;19;1808;-66
2023/01/02 10:10:30;;;;;;;;;;;;;;;;;;7368262;19;1877;-67
2023/01/02 10:12:58;;;;;;;;;;;;;;;;;;7370649;19;1863;-68
2023/01/02 10:15:26;;;;;;;;;;;;;;;;;;7370129;19;1833;-67
2023/01/02 10:17:56;;;;;;;;;;;;;;;;;;7370410;19;1941;-68
2023/01/02 10:20:26;;;;;;;;;;;;;;;;;;7368514;19;1875;-68
2023/01/02 10:22:54;;;;;;;;;;;;;;;;;;7369119;19;1670;-68
2023/01/02 10:25:22;;;;;;;;;;;;;;;;;;7369578;19;1686;-67
2023/01/02 10:27:50;;;;;;;;;;;;;;;;;;7366050;19;783;-67
2023/01/02 10:30:19;;;;;;;;;;;;;;;;;;7369213;19;1693;-68
2023/01/02 10:32:47;;;;;;;;;;;;;;;;;;7367863;19;1857;-67
2023/01/02 10:35:15;;;;;;;;;;;;;;;;;;7373601;19;888;-70
2023/01/02 10:37:43;;;;;;;;;;;;;;;;;;7371908;19;804;-69
2023/01/02 10:40:13;;;;;;;;;;;;;;;;;;7374440;19;2270;-70
2023/01/02 10:42:41;;;;;;;;;;;;;;;;;;7381029;19;1879;-70
2023/01/02 10:45:09;;;;;;;;;;;;;;;;;;7379522;19;1750;-70
2023/01/02 10:47:37;;;;;;;;;;;;;;;;;;7376186;19;1902;-70
2023/01/02 10:50:05;;;;;;;;;;;;;;;;;;7378092;19;1783;-71
2023/01/02 10:52:33;;;;;;;;;;;;;;;;;;7376442;19;1849;-70
2023/01/02 10:55:02;;;;;;;;;;;;;;;;;;7375743;19;1514;-71
2023/01/02 10:57:30;;;;;;;;;;;;;;;;;;7372889;19;855;-72
2023/01/02 10:59:58;;;;;;;;;;;;;;;;;;7375745;19;1829;-70
2023/01/02 11:02:26;;;;;;;;;;;;;;;;;;7376995;19;1877;-70
2023/01/02 11:04:54;;;;;;;;;;;;;;;;;;7375862;19;2111;-71
2023/01/02 11:07:22;;;;;;;;;;;;;;;;;;7376823;19;2358;-71
2023/01/02 11:09:51;;;;;;;;;;;;;;;;;;7375619;19;1948;-71
2023/01/02 11:12:19;;;;;;;;;;;;;;;;;;7373182;19;1863;-67
2023/01/02 11:14:47;;;;;;;;;;;;;;;;;;7376599;19;1729;-70
2023/01/02 11:17:15;;;;;;;;;;;;;;;;;;7373462;19;1686;-69
2023/01/02 11:19:43;;;;;;;;;;;;;;;;;;7370718;19;818;-70
2023/01/02 11:22:11;;;;;;;;;;;;;;;;;;7372614;19;1925;-69
2023/01/02 11:24:39;;;;;;;;;;;;;;;;;;7374980;19;1872;-70
2023/01/02 11:27:08;;;;;;;;;;;;;;;;;;7375762;19;1871;-69
2023/01/02 11:29:36;;;;;;;;;;;;;;;;;;7375793;19;1877;-69
2023/01/02 11:32:04;;;;;;;;;;;;;;;;;;7370889;19;1921;-71
2023/01/02 11:34:32;;;;;;;;;;;;;;;;;;7371393;19;1847;-70
2023/01/02 11:37:00;;;;;;;;;;;;;;;;;;7373084;19;1625;-71
2023/01/02 11:39:29;;;;;;;;;;;;;;;;;;7371949;19;1878;-70
2023/01/02 11:44:37;;;;;;;;;;;;;;;;;;7366944;19;790;-72
2023/01/02 11:47:06;;;;;;;;;;;;;;;;;;7368865;19;879;-70
2023/01/02 11:49:34;;;;;;;;;;;;;;;;;;7368558;19;816;-68
2023/01/02 11:52:02;;;;;;;;;;;;;;;;;;7368203;19;1330;-68
2023/01/02 11:54:30;;;;;;;;;;;;;;;;;;7368036;19;1850;-70
2023/01/02 11:56:58;;;;;;;;;;;;;;;;;;7370124;19;788;-70
2023/01/02 11:59:27;;;;;;;;;;;;;;;;;;7369477;19;730;-70
2023/01/02 12:01:55;;;;;;;;;;;;;;;;;;7367796;19;1333;-70
2023/01/02 12:04:23;;;;;;;;;;;;;;;;;;7370675;19;865;-69
2023/01/02 12:06:51;;;;;;;;;;;;;;;;;;7369451;19;849;-70
2023/01/02 12:09:19;;;;;;;;;;;;;;;;;;7370001;19;764;-70
2023/01/02 12:11:47;;;;;;;;;;;;;;;;;;7368391;19;2196;-69
2023/01/02 12:14:16;;;;;;;;;;;;;;;;;;7371999;19;1830;-70
2023/01/02 12:16:44;;;;;;;;;;;;;;;;;;7378158;19;890;-65
2023/01/02 12:19:13;;;;;;;;;;;;;;;;;;7379200;19;931;-68
2023/01/02 12:21:41;;;;;;;;;;;;;;;;;;7369286;19;1362;-68
2023/01/02 12:24:09;;;;;;;;;;;;;;;;;;7368926;19;803;-69
2023/01/02 12:26:37;;;;;;;;;;;;;;;;;;7368525;19;878;-69
2023/01/02 12:29:05;;;;;;;;;;;;;;;;;;7368492;19;858;-69
2023/01/02 12:31:34;;;;;;;;;;;;;;;;;;7366583;19;1310;-69
2023/01/02 12:34:03;;;;;;;;;;;;;;;;;;7369137;19;1855;-69
2023/01/02 12:36:31;;;;;;;;;;;;;;;;;;7368878;19;899;-68
2023/01/02 12:38:59;;;;;;;;;;;;;;;;;;7368040;19;842;-68
2023/01/02 12:41:28;;;;;;;;;;;;;;;;;;7367215;19;1272;-68
2023/01/02 12:43:56;;;;;;;;;;;;;;;;;;7370417;19;1908;-69
2023/01/02 12:46:25;;;;;;;;;;;;;;;;;;7369150;19;802;-69
2023/01/02 12:48:53;;;;;;;;;;;;;;;;;;7370864;19;2110;-69
2023/01/02 12:51:22;;;;;;;;;;;;;;;;;;7366750;19;1286;-68
2023/01/02 12:53:50;;;;;;;;;;;;;;;;;;7366774;19;1861;-69
2023/01/02 12:56:18;;;;;;;;;;;;;;;;;;7367672;19;814;-67
2023/01/02 12:58:46;;;;;;;;;;;;;;;;;;7367756;19;780;-69
2023/01/02 13:01:14;;;;;;;;;;;;;;;;;;7365716;19;1349;-68
2023/01/02 13:03:42;;;;;;;;;;;;;;;;;;7371700;19;1850;-69
2023/01/02 13:06:11;;;;;;;;;;;;;;;;;;7367648;19;819;-69
2023/01/02 13:08:39;;;;;;;;;;;;;;;;;;7366974;19;993;-69
2023/01/02 13:11:07;;;;;;;;;;;;;;;;;;7364811;19;1761;-68
2023/01/02 13:13:35;;;;;;;;;;;;;;;;;;7368031;19;1850;-68
2023/01/02 13:16:03;;;;;;;;;;;;;;;;;;7371572;19;2314;-69
2023/01/02 13:18:31;;;;;;;;;;;;;;;;;;7367385;19;804;-68
2023/01/02 13:21:00;;;;;;;;;;;;;;;;;;7366000;19;1267;-69
2023/01/02 13:23:28;;;;;;;;;;;;;;;;;;7367728;19;873;-68
2023/01/02 13:25:56;;;;;;;;;;;;;;;;;;7367538;19;861;-69
2023/01/02 13:28:24;;;;;;;;;;;;;;;;;;7366080;19;849;-69
2023/01/02 13:30:52;;;;;;;;;;;;;;;;;;7365911;19;1334;-69
2023/01/02 13:33:20;;;;;;;;;;;;;;;;;;7366558;19;1818;-69
2023/01/02 13:35:48;;;;;;;;;;;;;;;;;;7366639;19;787;-69
2023/01/02 13:38:17;;;;;;;;;;;;;;;;;;7365783;19;871;-69
2023/01/02 13:40:46;;;;;;;;;;;;;;;;;;7365729;19;1287;-68
2023/01/02 13:43:14;;;;;;;;;;;;;;;;;;7367684;19;798;-68
2023/01/02 13:45:42;;;;;;;;;;;;;;;;;;7370233;19;1840;-68
2023/01/02 13:48:10;;;;;;;;;;;;;;;;;;7365716;19;776;-68
2023/01/02 13:50:39;;;;;;;;;;;;;;;;;;7365252;19;1282;-68
2023/01/02 13:53:07;;;;;;;;;;;;;;;;;;7367042;19;1833;-66
2023/01/02 13:55:35;;;;;;;;;;;;;;;;;;7367035;19;854;-67
2023/01/02 13:58:04;;;;;;;;;;;;;;;;;;7365592;19;866;-67
2023/01/02 14:00:32;;;;;;;;;;;;;;;;;;7364384;19;1344;-67
2023/01/02 14:03:00;;;;;;;;;;;;;;;;;;7368208;19;794;-67
2023/01/02 14:05:28;;;;;;;;;;;;;;;;;;7366812;19;815;-67
2023/01/02 14:07:56;;;;;;;;;;;;;;;;;;7367071;19;792;-67
2023/01/02 14:10:25;;;;;;;;;;;;;;;;;;7372946;19;1274;-66
2023/01/02 14:12:53;;;;;;;;;;;;;;;;;;7371867;19;914;-67
2023/01/02 14:15:21;;;;;;;;;;;;;;;;;;7373190;19;1847;-67
2023/01/02 14:17:51;;;;;;;;;;;;;;;;;;7372007;19;798;-68
2023/01/02 14:20:20;;;;;;;;;;;;;;;;;;7371157;19;1256;-67
2023/01/02 14:22:48;;;;;;;;;;;;;;;;;;7371615;19;818;-67
2023/01/02 14:25:16;;;;;;;;;;;;;;;;;;7372299;19;875;-65
2023/01/02 14:27:44;;;;;;;;;;;;;;;;;;7371887;19;901;-66
2023/01/02 14:30:12;;;;;;;;;;;;;;;;;;7371909;19;1322;-65
2023/01/02 14:32:40;;;;;;;;;;;;;;;;;;7371717;19;802;-65
2023/01/02 14:35:08;;;;;;;;;;;;;;;;;;7370411;19;1837;-65
2023/01/02 14:37:37;;;;;;;;;;;;;;;;;;7371182;19;823;-64
2023/01/02 14:40:05;;;;;;;;;;;;;;;;;;7371340;19;1294;-65
2023/01/02 14:45:13;;;;;;;;;;;;;;;;;;7374432;19;1969;-66
2023/01/02 14:47:42;;;;;;;;;;;;;;;;;;7374945;19;1907;-67
2023/01/02 14:50:10;;;;;;;;;;;;;;;;;;7260095;19;13230;-66
2023/01/02 14:52:38;;;;;;;;;;;;;;;;;;7348240;19;10087;-64
2023/01/02 14:55:06;;;;;;;;;;;;;;;;;;7369653;19;1818;-66
2023/01/02 14:57:34;;;;;;;;;;;;;;;;;;7369573;19;821;-63
2023/01/02 15:00:02;;;;;;;;;;;;;;;;;;7370413;19;1314;-67
2023/01/02 15:02:31;;;;;;;;;;;;;;;;;;7371502;19;843;-68
2023/01/02 15:05:02;;;;;;;;;;;;;;;;;;7372210;19;806;-68
2023/01/02 15:07:30;;;;;;;;;;;;;;;;;;7370133;19;730;-67
2023/01/02 15:09:58;;;;;;;;;;;;;;;;;;7370738;19;1341;-66
2023/01/02 15:15:07;;;;;;;;;;;;;;;;;;7371872;19;1932;-68
2023/01/02 15:17:35;;;;;;;;;;;;;;;;;;7371270;19;782;-68
2023/01/02 15:20:03;;;;;;;;;;;;;;;;;;7368155;19;1326;-67
2023/01/02 15:22:31;;;;;;;;;;;;;;;;;;7370487;19;858;-69
2023/01/02 15:25:00;;;;;;;;;;;;;;;;;;7370426;19;827;-69
2023/01/02 15:27:28;;;;;;;;;;;;;;;;;;7370577;19;814;-67
2023/01/02 15:29:56;;;;;;;;;;;;;;;;;;7369433;19;1267;-67
2023/01/02 15:32:24;;;;;;;;;;;;;;;;;;7371218;19;807;-68
2023/01/02 15:34:52;;;;;;;;;;;;;;;;;;7368636;19;1841;-68
2023/01/02 15:37:21;;;;;;;;;;;;;;;;;;7374854;19;1855;-69
2023/01/02 15:39:49;;;;;;;;;;;;;;;;;;7373982;19;1897;-68
2023/01/02 15:47:38;;;;;;;;;;;;;;;;;;7369608;19;1749;-67
2023/01/02 15:50:06;;;;;;;;;;;;;;;;;;7356224;19;2897;-68
2023/01/02 15:52:35;;;;;;;;;;;;;;;;;;7371683;19;808;-67
2023/01/02 15:55:03;;;;;;;;;;;;;;;;;;7368978;19;1818;-67
2023/01/02 15:57:31;;;;;;;;;;;;;;;;;;7370416;19;831;-68
2023/01/02 15:59:59;;;;;;;;;;;;;;;;;;7371572;19;1730;-70
2023/01/02 16:02:27;;;;;;;;;;;;;;;;;;7370825;19;1837;-69
2023/01/02 16:04:56;;;;;;;;;;;;;;;;;;7372212;19;2095;-67
2023/01/02 16:07:25;;;;;;;;;;;;;;;;;;7366611;19;845;-68
2023/01/02 16:09:53;;;;;;;;;;;;;;;;;;7368516;19;914;-67
2023/01/02 16:12:21;;;;;;;;;;;;;;;;;;7366423;19;811;-66
2023/01/02 16:14:51;;;;;;;;;;;;;;;;;;7367500;19;1840;-66
2023/01/02 16:17:19;;;;;;;;;;;;;;;;;;7369341;19;796;-67
2023/01/02 16:19:48;;;;;;;;;;;;;;;;;;7368775;19;886;-67
2023/01/02 16:22:16;;;;;;;;;;;;;;;;;;7365281;19;1404;-68
2023/01/02 16:24:44;;;;;;;;;;;;;;;;;;7368921;19;840;-68
2023/01/02 16:27:12;;;;;;;;;;;;;;;;;;7368560;19;826;-70
2023/01/02 16:29:44;;;;;;;;;;;;;;;;;;7364755;19;1090;-69
2023/01/02 16:32:13;;;;;;;;;;;;;;;;;;7365216;19;1275;-68
2023/01/02 16:34:41;;;;;;;;;;;;;;;;;;7367997;19;1845;-69
2023/01/02 16:37:10;;;;;;;;;;;;;;;;;;7368555;19;846;-70
2023/01/02 16:39:42;;;;;;;;;;;;;;;;;;7373490;19;2228;-69
2023/01/02 16:44:55;;;;;;;;;;;;;;;;;;7371534;19;1751;-69
2023/01/02 16:47:23;;;;;;;;;;;;;;;;;;7368184;19;804;-68
2023/01/02 16:49:51;;;;;;;;;;;;;;;;;;7367559;19;855;-69
2023/01/02 16:52:19;;;;;;;;;;;;;;;;;;7364906;19;1181;-68
2023/01/02 16:54:47;;;;;;;;;;;;;;;;;;7367226;19;1853;-71
2023/01/02 16:57:15;;;;;;;;;;;;;;;;;;7368129;19;801;-71
2023/01/02 16:59:43;;;;;;;;;;;;;;;;;;7368324;19;798;-71
2023/01/02 17:02:11;;;;;;;;;;;;;;;;;;7367042;19;1293;-71
2023/01/02 17:04:40;;;;;;;;;;;;;;;;;;7369177;19;876;-71
2023/01/02 17:07:08;;;;;;;;;;;;;;;;;;7368177;19;788;-70
2023/01/02 17:09:36;;;;;;;;;;;;;;;;;;7367447;19;863;-69
2023/01/02 17:12:04;;;;;;;;;;;;;;;;;;7367232;19;1665;-70
2023/01/02 17:14:32;;;;;;;;;;;;;;;;;;7367013;19;1866;-69
2023/01/02 17:17:00;;;;;;;;;;;;;;;;;;7372531;19;2214;-69
2023/01/02 17:19:29;;;;;;;;;;;;;;;;;;7367885;19;898;-68
2023/01/02 17:21:57;;;;;;;;;;;;;;;;;;7366271;19;1334;-70
2023/01/02 17:24:25;;;;;;;;;;;;;;;;;;7367560;19;810;-69
2023/01/02 17:26:53;;;;;;;;;;;;;;;;;;7368816;19;845;-69
2023/01/02 17:29:21;;;;;;;;;;;;;;;;;;7368727;19;1882;-69
2023/01/02 17:31:49;;;;;;;;;;;;;;;;;;7364726;19;1288;-70
2023/01/02 17:34:17;;;;;;;;;;;;;;;;;;7369653;19;1895;-67